sensor_id;sensor_type;location;lat;lon;timestamp;P1;durP1;ratioP1;P2;durP2;ratioP2
41817;SDS011;27493;51.730;5.294;2022-09-13T05:49:02;12.47;;;8.27;;
41817;SDS011;27493;51.730;5.294;2022-09-13T05:51:27;12.40;;;8.50;;
41817;SDS011;27493;51.730;5.294;2022-09-13T05:53:53;13.43;;;9.03;;
41817;SDS011;27493;51.730;5.294;2022-09-13T05:56:22;15.27;;;9.93;;
41817;SDS011;27493;51.730;5.294;2022-09-13T05:58:49;12.37;;;9.13;;
41817;SDS011;27493;51.730;5.294;2022-09-13T06:01:18;13.47;;;9.27;;
41817;SDS011;27493;51.730;5.294;2022-09-13T06:03:47;13.80;;;9.13;;
41817;SDS011;27493;51.730;5.294;2022-09-13T06:06:13;15.80;;;10.67;;
41817;SDS011;27493;51.730;5.294;2022-09-13T06:08:39;14.60;;;9.27;;
41817;SDS011;27493;51.730;5.294;2022-09-13T06:11:05;12.70;;;8.77;;
41817;SDS011;27493;51.730;5.294;2022-09-13T06:13:32;12.47;;;8.57;;
41817;SDS011;27493;51.730;5.294;2022-09-13T06:15:58;11.17;;;8.33;;
41817;SDS011;27493;51.730;5.294;2022-09-13T06:18:27;15.90;;;9.60;;
41817;SDS011;27493;51.730;5.294;2022-09-13T06:20:59;14.30;;;9.23;;
41817;SDS011;27493;51.730;5.294;2022-09-13T06:23:28;13.20;;;9.93;;
41817;SDS011;27493;51.730;5.294;2022-09-13T06:26:04;15.37;;;9.00;;
41817;SDS011;27493;51.730;5.294;2022-09-13T06:28:29;16.50;;;9.03;;
41817;SDS011;27493;51.730;5.294;2022-09-13T06:30:59;17.50;;;10.03;;
41817;SDS011;27493;51.730;5.294;2022-09-13T06:33:24;13.33;;;9.87;;
41817;SDS011;27493;51.730;5.294;2022-09-13T06:35:50;17.90;;;10.60;;
41817;SDS011;27493;51.730;5.294;2022-09-13T06:38:15;15.77;;;10.13;;
41817;SDS011;27493;51.730;5.294;2022-09-13T06:40:41;15.87;;;9.90;;
41817;SDS011;27493;51.730;5.294;2022-09-13T06:43:09;17.03;;;11.33;;
41817;SDS011;27493;51.730;5.294;2022-09-13T06:45:35;15.10;;;10.17;;
41817;SDS011;27493;51.730;5.294;2022-09-13T06:48:01;15.70;;;11.53;;
41817;SDS011;27493;51.730;5.294;2022-09-13T06:50:27;15.97;;;11.03;;
41817;SDS011;27493;51.730;5.294;2022-09-13T06:52:52;19.23;;;11.70;;
41817;SDS011;27493;51.730;5.294;2022-09-13T06:55:20;16.20;;;10.80;;
41817;SDS011;27493;51.730;5.294;2022-09-13T06:57:46;17.23;;;10.87;;
41817;SDS011;27493;51.730;5.294;2022-09-13T07:00:14;16.97;;;10.80;;
41817;SDS011;27493;51.730;5.294;2022-09-13T07:02:39;16.87;;;11.47;;
41817;SDS011;27493;51.730;5.294;2022-09-13T07:05:05;16.23;;;11.40;;
41817;SDS011;27493;51.730;5.294;2022-09-13T07:07:31;13.93;;;10.63;;
41817;SDS011;27493;51.730;5.294;2022-09-13T07:09:56;16.03;;;11.60;;
41817;SDS011;27493;51.730;5.294;2022-09-13T07:12:22;19.77;;;13.03;;
41817;SDS011;27493;51.730;5.294;2022-09-13T07:14:47;17.77;;;11.70;;
41817;SDS011;27493;51.730;5.294;2022-09-13T07:17:13;20.73;;;12.67;;
41817;SDS011;27493;51.730;5.294;2022-09-13T07:19:39;17.33;;;11.40;;
41817;SDS011;27493;51.730;5.294;2022-09-13T07:22:04;19.63;;;12.63;;
41817;SDS011;27493;51.730;5.294;2022-09-13T07:24:30;21.37;;;13.00;;
41817;SDS011;27493;51.730;5.294;2022-09-13T07:26:55;21.47;;;13.37;;
41817;SDS011;27493;51.730;5.294;2022-09-13T07:29:21;22.53;;;13.43;;
41817;SDS011;27493;51.730;5.294;2022-09-13T07:31:48;19.87;;;13.33;;
41817;SDS011;27493;51.730;5.294;2022-09-13T07:34:15;22.47;;;14.17;;
41817;SDS011;27493;51.730;5.294;2022-09-13T07:36:40;24.60;;;15.50;;
41817;SDS011;27493;51.730;5.294;2022-09-13T07:39:06;27.70;;;15.97;;
41817;SDS011;27493;51.730;5.294;2022-09-13T07:41:31;23.50;;;15.63;;
41817;SDS011;27493;51.730;5.294;2022-09-13T07:43:57;23.77;;;15.43;;
41817;SDS011;27493;51.730;5.294;2022-09-13T07:46:25;31.67;;;16.63;;
41817;SDS011;27493;51.730;5.294;2022-09-13T07:48:51;24.67;;;15.53;;
41817;SDS011;27493;51.730;5.294;2022-09-13T07:51:18;23.97;;;15.83;;
41817;SDS011;27493;51.730;5.294;2022-09-13T07:53:45;26.80;;;16.87;;
41817;SDS011;27493;51.730;5.294;2022-09-13T07:56:11;26.40;;;16.90;;
41817;SDS011;27493;51.730;5.294;2022-09-13T07:58:37;27.33;;;17.83;;
41817;SDS011;27493;51.730;5.294;2022-09-13T08:01:04;27.10;;;17.30;;
41817;SDS011;27493;51.730;5.294;2022-09-13T08:03:30;29.87;;;18.70;;
41817;SDS011;27493;51.730;5.294;2022-09-13T08:05:55;29.03;;;17.37;;
41817;SDS011;27493;51.730;5.294;2022-09-13T08:08:23;31.27;;;18.67;;
41817;SDS011;27493;51.730;5.294;2022-09-13T08:10:49;26.37;;;17.70;;
41817;SDS011;27493;51.730;5.294;2022-09-13T08:13:15;27.03;;;16.77;;
41817;SDS011;27493;51.730;5.294;2022-09-13T08:15:40;25.67;;;16.13;;
41817;SDS011;27493;51.730;5.294;2022-09-13T08:18:06;25.55;;;16.25;;
41817;SDS011;27493;51.730;5.294;2022-09-13T08:20:37;24.83;;;15.60;;
41817;SDS011;27493;51.730;5.294;2022-09-13T08:23:05;22.30;;;14.38;;
41817;SDS011;27493;51.730;5.294;2022-09-13T08:25:33;20.90;;;14.52;;
41817;SDS011;27493;51.730;5.294;2022-09-13T08:28:09;20.73;;;13.95;;
41817;SDS011;27493;51.730;5.294;2022-09-13T08:30:35;22.40;;;14.10;;
41817;SDS011;27493;51.730;5.294;2022-09-13T08:33:04;22.17;;;12.85;;
41817;SDS011;27493;51.730;5.294;2022-09-13T08:35:30;17.30;;;11.48;;
41817;SDS011;27493;51.730;5.294;2022-09-13T08:37:55;13.50;;;9.73;;
41817;SDS011;27493;51.730;5.294;2022-09-13T08:40:21;14.33;;;9.37;;
41817;SDS011;27493;51.730;5.294;2022-09-13T08:43:00;14.07;;;8.63;;
41817;SDS011;27493;51.730;5.294;2022-09-13T08:45:28;11.40;;;7.82;;
41817;SDS011;27493;51.730;5.294;2022-09-13T08:50:48;10.07;;;5.78;;
41817;SDS011;27493;51.730;5.294;2022-09-13T08:53:21;11.18;;;6.88;;
41817;SDS011;27493;51.730;5.294;2022-09-13T09:01:06;10.90;;;5.65;;
41817;SDS011;27493;51.730;5.294;2022-09-13T09:03:37;12.60;;;6.90;;
41817;SDS011;27493;51.730;5.294;2022-09-13T09:06:07;11.68;;;7.78;;
41817;SDS011;27493;51.730;5.294;2022-09-13T09:08:41;10.57;;;6.60;;
41817;SDS011;27493;51.730;5.294;2022-09-13T09:11:23;12.50;;;7.47;;
41817;SDS011;27493;51.730;5.294;2022-09-13T09:13:56;13.10;;;7.97;;
41817;SDS011;27493;51.730;5.294;2022-09-13T09:16:29;11.75;;;8.13;;
41817;SDS011;27493;51.730;5.294;2022-09-13T09:18:58;12.80;;;7.63;;
41817;SDS011;27493;51.730;5.294;2022-09-13T09:21:26;13.30;;;8.48;;
41817;SDS011;27493;51.730;5.294;2022-09-13T09:23:53;12.60;;;8.13;;
41817;SDS011;27493;51.730;5.294;2022-09-13T09:31:26;10.88;;;6.60;;
41817;SDS011;27493;51.730;5.294;2022-09-13T09:37:09;10.45;;;7.25;;
41817;SDS011;27493;51.730;5.294;2022-09-13T09:39:09;9.75;;;7.35;;
41817;SDS011;27493;51.730;5.294;2022-09-13T09:41:35;11.35;;;7.80;;
41817;SDS011;27493;51.730;5.294;2022-09-13T09:46:43;9.90;;;6.18;;
41817;SDS011;27493;51.730;5.294;2022-09-13T09:49:13;8.98;;;5.13;;
41817;SDS011;27493;51.730;5.294;2022-09-13T09:52:00;6.68;;;4.95;;
41817;SDS011;27493;51.730;5.294;2022-09-13T09:54:25;8.18;;;5.60;;
41817;SDS011;27493;51.730;5.294;2022-09-13T09:56:52;10.38;;;5.18;;
41817;SDS011;27493;51.730;5.294;2022-09-13T09:59:24;6.63;;;5.07;;
41817;SDS011;27493;51.730;5.294;2022-09-13T10:01:49;9.93;;;6.00;;
41817;SDS011;27493;51.730;5.294;2022-09-13T10:04:18;8.40;;;6.63;;
41817;SDS011;27493;51.730;5.294;2022-09-13T10:06:46;9.32;;;6.30;;
41817;SDS011;27493;51.730;5.294;2022-09-13T10:11:43;7.18;;;5.47;;
41817;SDS011;27493;51.730;5.294;2022-09-13T10:19:30;8.95;;;5.70;;
41817;SDS011;27493;51.730;5.294;2022-09-13T10:24:25;6.63;;;5.10;;
41817;SDS011;27493;51.730;5.294;2022-09-13T10:26:51;8.50;;;5.60;;
41817;SDS011;27493;51.730;5.294;2022-09-13T10:29:16;5.47;;;4.75;;
41817;SDS011;27493;51.730;5.294;2022-09-13T10:31:43;4.93;;;3.58;;
41817;SDS011;27493;51.730;5.294;2022-09-13T10:34:13;5.55;;;3.90;;
41817;SDS011;27493;51.730;5.294;2022-09-13T10:39:33;7.13;;;4.18;;
41817;SDS011;27493;51.730;5.294;2022-09-13T10:42:16;6.80;;;3.72;;
41817;SDS011;27493;51.730;5.294;2022-09-13T10:47:54;4.10;;;3.67;;
41817;SDS011;27493;51.730;5.294;2022-09-13T10:53:40;7.97;;;5.40;;
41817;SDS011;27493;51.730;5.294;2022-09-13T10:59:13;8.98;;;6.68;;
41817;SDS011;27493;51.730;5.294;2022-09-13T11:10:28;5.40;;;2.60;;
41817;SDS011;27493;51.730;5.294;2022-09-13T11:30:44;3.33;;;2.75;;
41817;SDS011;27493;51.730;5.294;2022-09-13T11:33:29;3.75;;;3.13;;
41817;SDS011;27493;51.730;5.294;2022-09-13T11:36:15;4.05;;;2.58;;
41817;SDS011;27493;51.730;5.294;2022-09-13T11:53:51;2.15;;;1.95;;
41817;SDS011;27493;51.730;5.294;2022-09-13T12:09:13;1.98;;;1.80;;
41817;SDS011;27493;51.730;5.294;2022-09-13T12:11:38;2.45;;;1.48;;
41817;SDS011;27493;51.730;5.294;2022-09-13T12:14:12;3.55;;;2.05;;
41817;SDS011;27493;51.730;5.294;2022-09-13T12:16:43;2.70;;;1.83;;
41817;SDS011;27493;51.730;5.294;2022-09-13T12:19:14;3.30;;;1.90;;
41817;SDS011;27493;51.730;5.294;2022-09-13T12:21:41;2.65;;;1.70;;
41817;SDS011;27493;51.730;5.294;2022-09-13T12:32:09;1.75;;;1.40;;
41817;SDS011;27493;51.730;5.294;2022-09-13T12:43:14;2.85;;;1.42;;
41817;SDS011;27493;51.730;5.294;2022-09-13T12:51:48;2.80;;;1.50;;
41817;SDS011;27493;51.730;5.294;2022-09-13T12:56:43;2.08;;;1.30;;
41817;SDS011;27493;51.730;5.294;2022-09-13T13:02:00;1.23;;;1.10;;
41817;SDS011;27493;51.730;5.294;2022-09-13T13:04:31;1.88;;;0.95;;
41817;SDS011;27493;51.730;5.294;2022-09-13T13:07:15;1.95;;;1.10;;
41817;SDS011;27493;51.730;5.294;2022-09-13T13:09:44;2.33;;;1.20;;
41817;SDS011;27493;51.730;5.294;2022-09-13T13:14:54;1.40;;;1.20;;
41817;SDS011;27493;51.730;5.294;2022-09-13T13:17:37;2.67;;;1.40;;
41817;SDS011;27493;51.730;5.294;2022-09-13T13:22:47;3.05;;;1.20;;
41817;SDS011;27493;51.730;5.294;2022-09-13T13:25:33;1.75;;;1.20;;
41817;SDS011;27493;51.730;5.294;2022-09-13T13:39:06;1.60;;;1.50;;
41817;SDS011;27493;51.730;5.294;2022-09-13T13:46:54;4.40;;;1.45;;
41817;SDS011;27493;51.730;5.294;2022-09-13T14:00:12;3.15;;;1.50;;
41817;SDS011;27493;51.730;5.294;2022-09-13T14:15:31;2.88;;;2.20;;
41817;SDS011;27493;51.730;5.294;2022-09-13T14:18:24;2.28;;;2.08;;
41817;SDS011;27493;51.730;5.294;2022-09-13T14:27:00;2.97;;;1.90;;
41817;SDS011;27493;51.730;5.294;2022-09-13T14:29:25;3.85;;;1.60;;
41817;SDS011;27493;51.730;5.294;2022-09-13T14:31:52;2.70;;;1.60;;
41817;SDS011;27493;51.730;5.294;2022-09-13T14:37:28;2.92;;;1.80;;
41817;SDS011;27493;51.730;5.294;2022-09-13T14:42:57;3.10;;;1.88;;
41817;SDS011;27493;51.730;5.294;2022-09-13T14:45:24;3.15;;;1.85;;
41817;SDS011;27493;51.730;5.294;2022-09-13T14:50:21;2.30;;;2.00;;
41817;SDS011;27493;51.730;5.294;2022-09-13T14:52:48;3.75;;;1.70;;
41817;SDS011;27493;51.730;5.294;2022-09-13T14:55:15;2.25;;;1.60;;
41817;SDS011;27493;51.730;5.294;2022-09-13T14:57:45;3.35;;;1.92;;
41817;SDS011;27493;51.730;5.294;2022-09-13T15:02:38;1.77;;;1.67;;
41817;SDS011;27493;51.730;5.294;2022-09-13T15:05:10;1.85;;;1.75;;
41817;SDS011;27493;51.730;5.294;2022-09-13T15:07:37;2.95;;;1.77;;
41817;SDS011;27493;51.730;5.294;2022-09-13T15:12:35;2.28;;;1.55;;
41817;SDS011;27493;51.730;5.294;2022-09-13T15:17:57;3.05;;;1.60;;
41817;SDS011;27493;51.730;5.294;2022-09-13T15:20:23;1.58;;;1.40;;
41817;SDS011;27493;51.730;5.294;2022-09-13T15:22:49;1.80;;;1.45;;
41817;SDS011;27493;51.730;5.294;2022-09-13T15:25:27;3.70;;;1.77;;
41817;SDS011;27493;51.730;5.294;2022-09-13T15:27:54;3.33;;;1.50;;
41817;SDS011;27493;51.730;5.294;2022-09-13T15:30:21;2.53;;;1.35;;
41817;SDS011;27493;51.730;5.294;2022-09-13T15:32:47;2.17;;;1.58;;
41817;SDS011;27493;51.730;5.294;2022-09-13T15:35:29;2.20;;;1.63;;
41817;SDS011;27493;51.730;5.294;2022-09-13T15:37:59;1.83;;;1.48;;
41817;SDS011;27493;51.730;5.294;2022-09-13T15:40:25;3.13;;;1.50;;
41817;SDS011;27493;51.730;5.294;2022-09-13T15:42:51;3.30;;;1.38;;
41817;SDS011;27493;51.730;5.294;2022-09-13T15:45:17;3.38;;;1.50;;
41817;SDS011;27493;51.730;5.294;2022-09-13T15:47:49;1.85;;;1.30;;
41817;SDS011;27493;51.730;5.294;2022-09-13T15:50:22;1.42;;;1.30;;
41817;SDS011;27493;51.730;5.294;2022-09-13T15:52:50;1.42;;;1.20;;
41817;SDS011;27493;51.730;5.294;2022-09-13T15:55:15;2.50;;;1.27;;
41817;SDS011;27493;51.730;5.294;2022-09-13T15:57:42;2.72;;;1.45;;
41817;SDS011;27493;51.730;5.294;2022-09-13T16:00:18;2.03;;;1.30;;
41817;SDS011;27493;51.730;5.294;2022-09-13T16:02:44;1.80;;;1.30;;
41817;SDS011;27493;51.730;5.294;2022-09-13T16:05:09;3.40;;;1.50;;
41817;SDS011;27493;51.730;5.294;2022-09-13T16:07:36;1.80;;;1.55;;
41817;SDS011;27493;51.730;5.294;2022-09-13T16:10:02;1.85;;;1.40;;
41817;SDS011;27493;51.730;5.294;2022-09-13T16:12:27;5.50;;;1.65;;
41817;SDS011;27493;51.730;5.294;2022-09-13T16:14:53;1.60;;;1.50;;
41817;SDS011;27493;51.730;5.294;2022-09-13T16:17:22;3.05;;;1.30;;
41817;SDS011;27493;51.730;5.294;2022-09-13T16:22:54;2.00;;;1.33;;
41817;SDS011;27493;51.730;5.294;2022-09-13T16:25:19;2.53;;;1.50;;
41817;SDS011;27493;51.730;5.294;2022-09-13T16:27:44;2.13;;;1.20;;
41817;SDS011;27493;51.730;5.294;2022-09-13T16:30:11;1.85;;;1.50;;
41817;SDS011;27493;51.730;5.294;2022-09-13T16:32:37;1.70;;;1.60;;
41817;SDS011;27493;51.730;5.294;2022-09-13T16:35:02;2.33;;;1.45;;
41817;SDS011;27493;51.730;5.294;2022-09-13T16:37:27;1.95;;;1.55;;
41817;SDS011;27493;51.730;5.294;2022-09-13T16:39:55;4.55;;;1.80;;
41817;SDS011;27493;51.730;5.294;2022-09-13T16:42:20;2.95;;;1.80;;
41817;SDS011;27493;51.730;5.294;2022-09-13T16:44:45;3.63;;;1.67;;
41817;SDS011;27493;51.730;5.294;2022-09-13T16:47:11;5.57;;;1.90;;
41817;SDS011;27493;51.730;5.294;2022-09-13T16:49:36;4.50;;;1.85;;
41817;SDS011;27493;51.730;5.294;2022-09-13T16:52:01;3.47;;;1.70;;
41817;SDS011;27493;51.730;5.294;2022-09-13T16:54:27;4.00;;;1.63;;
41817;SDS011;27493;51.730;5.294;2022-09-13T16:56:58;5.30;;;2.00;;
41817;SDS011;27493;51.730;5.294;2022-09-13T16:59:23;2.42;;;1.48;;
41817;SDS011;27493;51.730;5.294;2022-09-13T17:01:49;2.55;;;1.73;;
41817;SDS011;27493;51.730;5.294;2022-09-13T17:04:14;3.28;;;1.65;;
41817;SDS011;27493;51.730;5.294;2022-09-13T17:06:40;6.80;;;1.90;;
41817;SDS011;27493;51.730;5.294;2022-09-13T17:09:05;1.88;;;1.23;;
41817;SDS011;27493;51.730;5.294;2022-09-13T17:11:32;2.65;;;1.63;;
41817;SDS011;27493;51.730;5.294;2022-09-13T17:13:58;2.67;;;1.30;;
41817;SDS011;27493;51.730;5.294;2022-09-13T17:16:28;2.25;;;1.13;;
41817;SDS011;27493;51.730;5.294;2022-09-13T17:18:55;1.25;;;1.00;;
41817;SDS011;27493;51.730;5.294;2022-09-13T17:21:21;1.10;;;0.95;;
41817;SDS011;27493;51.730;5.294;2022-09-13T17:23:47;3.17;;;1.30;;
41817;SDS011;27493;51.730;5.294;2022-09-13T17:26:12;2.17;;;1.10;;
41817;SDS011;27493;51.730;5.294;2022-09-13T17:28:37;3.30;;;1.30;;
41817;SDS011;27493;51.730;5.294;2022-09-13T17:31:03;1.08;;;0.95;;
41817;SDS011;27493;51.730;5.294;2022-09-13T17:33:28;2.35;;;1.05;;
41817;SDS011;27493;51.730;5.294;2022-09-13T17:35:58;5.63;;;1.02;;
41817;SDS011;27493;51.730;5.294;2022-09-13T17:38:23;3.55;;;1.10;;
41817;SDS011;27493;51.730;5.294;2022-09-13T17:40:57;1.75;;;0.85;;
41817;SDS011;27493;51.730;5.294;2022-09-13T17:43:22;1.00;;;0.80;;
41817;SDS011;27493;51.730;5.294;2022-09-13T17:45:48;4.90;;;1.10;;
41817;SDS011;27493;51.730;5.294;2022-09-13T17:48:16;3.42;;;1.08;;
41817;SDS011;27493;51.730;5.294;2022-09-13T17:50:41;2.08;;;1.10;;
41817;SDS011;27493;51.730;5.294;2022-09-13T17:53:10;2.90;;;1.00;;
41817;SDS011;27493;51.730;5.294;2022-09-13T17:55:44;1.30;;;0.73;;
41817;SDS011;27493;51.730;5.294;2022-09-13T17:58:09;2.47;;;1.20;;
41817;SDS011;27493;51.730;5.294;2022-09-13T18:01:02;4.90;;;1.15;;
41817;SDS011;27493;51.730;5.294;2022-09-13T18:03:28;1.75;;;1.00;;
41817;SDS011;27493;51.730;5.294;2022-09-13T18:05:57;4.22;;;1.35;;
41817;SDS011;27493;51.730;5.294;2022-09-13T18:08:26;4.22;;;1.20;;
41817;SDS011;27493;51.730;5.294;2022-09-13T18:11:00;1.73;;;1.05;;
41817;SDS011;27493;51.730;5.294;2022-09-13T18:13:25;3.10;;;1.33;;
41817;SDS011;27493;51.730;5.294;2022-09-13T18:16:01;3.15;;;0.98;;
41817;SDS011;27493;51.730;5.294;2022-09-13T18:18:27;2.83;;;1.30;;
41817;SDS011;27493;51.730;5.294;2022-09-13T18:20:57;1.15;;;1.00;;
41817;SDS011;27493;51.730;5.294;2022-09-13T18:23:28;3.58;;;1.20;;
41817;SDS011;27493;51.730;5.294;2022-09-13T18:26:03;2.65;;;0.95;;
41817;SDS011;27493;51.730;5.294;2022-09-13T18:28:29;1.00;;;0.90;;
41817;SDS011;27493;51.730;5.294;2022-09-13T18:31:02;2.75;;;1.10;;
41817;SDS011;27493;51.730;5.294;2022-09-13T18:33:33;1.67;;;1.05;;
41817;SDS011;27493;51.730;5.294;2022-09-13T18:36:06;2.80;;;1.00;;
41817;SDS011;27493;51.730;5.294;2022-09-13T18:38:36;2.15;;;1.30;;
41817;SDS011;27493;51.730;5.294;2022-09-13T18:43:43;3.47;;;1.20;;
41817;SDS011;27493;51.730;5.294;2022-09-13T18:46:20;1.45;;;1.33;;
41817;SDS011;27493;51.730;5.294;2022-09-13T18:48:47;2.08;;;1.15;;
41817;SDS011;27493;51.730;5.294;2022-09-13T18:51:17;3.95;;;1.20;;
41817;SDS011;27493;51.730;5.294;2022-09-13T18:54:06;4.32;;;1.23;;
41817;SDS011;27493;51.730;5.294;2022-09-13T18:56:31;2.33;;;1.25;;
41817;SDS011;27493;51.730;5.294;2022-09-13T18:59:01;3.95;;;1.25;;
41817;SDS011;27493;51.730;5.294;2022-09-13T19:01:28;2.72;;;1.13;;
41817;SDS011;27493;51.730;5.294;2022-09-13T19:03:58;1.65;;;1.20;;
41817;SDS011;27493;51.730;5.294;2022-09-13T19:06:25;3.40;;;0.98;;
41817;SDS011;27493;51.730;5.294;2022-09-13T19:09:07;2.92;;;1.10;;
41817;SDS011;27493;51.730;5.294;2022-09-13T19:11:40;3.10;;;1.10;;
41817;SDS011;27493;51.730;5.294;2022-09-13T19:17:07;4.03;;;1.33;;
41817;SDS011;27493;51.730;5.294;2022-09-13T19:19:33;2.58;;;1.23;;
41817;SDS011;27493;51.730;5.294;2022-09-13T19:21:59;1.85;;;1.25;;
41817;SDS011;27493;51.730;5.294;2022-09-13T19:24:25;2.65;;;1.35;;
41817;SDS011;27493;51.730;5.294;2022-09-13T19:26:50;4.03;;;1.58;;
41817;SDS011;27493;51.730;5.294;2022-09-13T19:29:16;5.10;;;1.23;;
41817;SDS011;27493;51.730;5.294;2022-09-13T19:31:43;2.88;;;1.10;;
41817;SDS011;27493;51.730;5.294;2022-09-13T19:34:11;3.88;;;0.95;;
41817;SDS011;27493;51.730;5.294;2022-09-13T19:42:08;1.77;;;1.20;;
41817;SDS011;27493;51.730;5.294;2022-09-13T19:49:54;3.83;;;1.17;;
41817;SDS011;27493;51.730;5.294;2022-09-13T19:52:37;3.55;;;1.40;;
41817;SDS011;27493;51.730;5.294;2022-09-13T19:55:07;6.30;;;1.40;;
41817;SDS011;27493;51.730;5.294;2022-09-13T19:57:36;3.97;;;1.30;;
41817;SDS011;27493;51.730;5.294;2022-09-13T20:19:31;3.00;;;1.37;;
41817;SDS011;27493;51.730;5.294;2022-09-13T20:21:59;2.90;;;1.50;;
41817;SDS011;27493;51.730;5.294;2022-09-13T20:24:33;3.43;;;1.53;;
41817;SDS011;27493;51.730;5.294;2022-09-13T20:26:59;2.73;;;1.13;;
41817;SDS011;27493;51.730;5.294;2022-09-13T20:29:27;2.67;;;1.23;;
41817;SDS011;27493;51.730;5.294;2022-09-13T20:31:55;3.10;;;1.17;;
41817;SDS011;27493;51.730;5.294;2022-09-13T20:37:29;3.20;;;1.40;;
41817;SDS011;27493;51.730;5.294;2022-09-13T20:40:03;1.87;;;1.20;;
41817;SDS011;27493;51.730;5.294;2022-09-13T21:07:22;1.77;;;1.13;;
41817;SDS011;27493;51.730;5.294;2022-09-13T21:16:12;4.73;;;1.13;;
41817;SDS011;27493;51.730;5.294;2022-09-13T21:21:43;4.47;;;1.33;;
41817;SDS011;27493;51.730;5.294;2022-09-13T21:27:20;3.00;;;1.40;;
41817;SDS011;27493;51.730;5.294;2022-09-13T21:29:46;4.07;;;1.70;;
41817;SDS011;27493;51.730;5.294;2022-09-13T21:32:14;4.13;;;1.27;;
41817;SDS011;27493;51.730;5.294;2022-09-13T21:42:25;2.13;;;1.20;;
41817;SDS011;27493;51.730;5.294;2022-09-13T22:19:17;5.50;;;1.40;;
41817;SDS011;27493;51.730;5.294;2022-09-13T22:25:05;1.57;;;1.13;;
41817;SDS011;27493;51.730;5.294;2022-09-13T22:27:33;3.00;;;1.10;;
41817;SDS011;27493;51.730;5.294;2022-09-13T22:30:02;5.83;;;1.80;;
41817;SDS011;27493;51.730;5.294;2022-09-13T22:32:31;3.50;;;1.20;;
41817;SDS011;27493;51.730;5.294;2022-09-13T22:38:00;2.33;;;1.00;;
41817;SDS011;27493;51.730;5.294;2022-09-13T22:43:34;4.43;;;1.30;;
41817;SDS011;27493;51.730;5.294;2022-09-13T22:46:01;3.10;;;1.20;;
41817;SDS011;27493;51.730;5.294;2022-09-13T22:48:36;4.40;;;1.20;;
41817;SDS011;27493;51.730;5.294;2022-09-13T22:51:07;4.20;;;1.30;;
41817;SDS011;27493;51.730;5.294;2022-09-13T22:53:42;4.90;;;1.30;;
